sensor_id;sensor_type;location;lat;lon;timestamp;pressure;altitude;pressure_sealevel;temperature;humidity
54920;BME280;63804;53.120;8.764;2023-05-11T00:00:38;101517.81;;;14.44;76.04
54920;BME280;63804;53.120;8.764;2023-05-11T00:03:05;101516.59;;;14.36;76.24
54920;BME280;63804;53.120;8.764;2023-05-11T00:05:33;101515.84;;;14.34;76.15
54920;BME280;63804;53.120;8.764;2023-05-11T00:08:00;101514.16;;;14.33;76.09
54920;BME280;63804;53.120;8.764;2023-05-11T00:10:28;101510.78;;;14.31;76.09
54920;BME280;63804;53.120;8.764;2023-05-11T00:12:55;101512.22;;;14.24;76.09
54920;BME280;63804;53.120;8.764;2023-05-11T00:15:22;101511.25;;;14.25;76.24
54920;BME280;63804;53.120;8.764;2023-05-11T00:17:49;101515.59;;;14.26;76.10
54920;BME280;63804;53.120;8.764;2023-05-11T00:20:17;101521.66;;;14.28;76.02
54920;BME280;63804;53.120;8.764;2023-05-11T00:22:44;101517.41;;;14.26;75.99
54920;BME280;63804;53.120;8.764;2023-05-11T00:25:12;101523.72;;;14.25;75.91
54920;BME280;63804;53.120;8.764;2023-05-11T00:27:39;101523.81;;;14.12;76.47
54920;BME280;63804;53.120;8.764;2023-05-11T00:30:12;101520.78;;;14.05;76.40
54920;BME280;63804;53.120;8.764;2023-05-11T00:32:43;101521.00;;;14.02;76.60
54920;BME280;63804;53.120;8.764;2023-05-11T00:35:11;101518.19;;;14.04;76.21
54920;BME280;63804;53.120;8.764;2023-05-11T00:37:38;101522.06;;;14.00;76.36
54920;BME280;63804;53.120;8.764;2023-05-11T00:40:06;101519.53;;;13.98;76.43
54920;BME280;63804;53.120;8.764;2023-05-11T00:42:33;101516.38;;;13.93;76.68
54920;BME280;63804;53.120;8.764;2023-05-11T00:45:00;101510.56;;;13.99;76.34
54920;BME280;63804;53.120;8.764;2023-05-11T00:47:28;101510.22;;;14.04;76.38
54920;BME280;63804;53.120;8.764;2023-05-11T00:49:56;101509.22;;;13.94;76.64
54920;BME280;63804;53.120;8.764;2023-05-11T00:52:23;101516.50;;;14.03;76.65
54920;BME280;63804;53.120;8.764;2023-05-11T00:54:51;101516.06;;;14.09;76.52
54920;BME280;63804;53.120;8.764;2023-05-11T00:57:18;101509.50;;;14.02;76.82
54920;BME280;63804;53.120;8.764;2023-05-11T00:59:45;101509.28;;;14.05;76.95
54920;BME280;63804;53.120;8.764;2023-05-11T01:02:12;101503.69;;;14.08;77.11
54920;BME280;63804;53.120;8.764;2023-05-11T01:04:40;101510.56;;;13.99;77.35
54920;BME280;63804;53.120;8.764;2023-05-11T01:07:16;101509.72;;;13.99;77.29
54920;BME280;63804;53.120;8.764;2023-05-11T01:15:52;101508.75;;;14.00;77.46
54920;BME280;63804;53.120;8.764;2023-05-11T01:18:45;101507.81;;;14.01;77.48
54920;BME280;63804;53.120;8.764;2023-05-11T01:21:16;101516.47;;;13.92;77.86
54920;BME280;63804;53.120;8.764;2023-05-11T01:24:19;101511.09;;;14.04;77.66
54920;BME280;63804;53.120;8.764;2023-05-11T01:32:21;101509.59;;;14.00;77.64
54920;BME280;63804;53.120;8.764;2023-05-11T01:34:55;101509.50;;;14.02;77.38
54920;BME280;63804;53.120;8.764;2023-05-11T01:37:25;101517.00;;;13.97;77.68
54920;BME280;63804;53.120;8.764;2023-05-11T01:40:00;101522.31;;;14.08;77.34
54920;BME280;63804;53.120;8.764;2023-05-11T01:42:39;101515.31;;;14.07;77.14
54920;BME280;63804;53.120;8.764;2023-05-11T01:45:09;101529.22;;;13.99;77.40
54920;BME280;63804;53.120;8.764;2023-05-11T01:47:39;101522.06;;;14.00;77.02
54920;BME280;63804;53.120;8.764;2023-05-11T01:50:07;101531.16;;;13.97;77.02
54920;BME280;63804;53.120;8.764;2023-05-11T01:52:36;101531.47;;;13.93;77.17
54920;BME280;63804;53.120;8.764;2023-05-11T01:55:05;101536.59;;;13.96;76.96
54920;BME280;63804;53.120;8.764;2023-05-11T01:57:35;101526.91;;;13.95;77.09
54920;BME280;63804;53.120;8.764;2023-05-11T02:00:06;101535.97;;;13.92;76.83
54920;BME280;63804;53.120;8.764;2023-05-11T02:02:35;101534.03;;;13.94;76.75
54920;BME280;63804;53.120;8.764;2023-05-11T02:05:04;101536.34;;;13.99;76.46
54920;BME280;63804;53.120;8.764;2023-05-11T02:07:34;101535.69;;;13.84;77.03
54920;BME280;63804;53.120;8.764;2023-05-11T02:10:02;101544.47;;;13.73;77.66
54920;BME280;63804;53.120;8.764;2023-05-11T02:12:31;101547.44;;;13.81;77.78
54920;BME280;63804;53.120;8.764;2023-05-11T02:15:00;101545.38;;;13.85;77.31
54920;BME280;63804;53.120;8.764;2023-05-11T02:17:29;101547.22;;;13.96;76.92
54920;BME280;63804;53.120;8.764;2023-05-11T02:19:59;101548.22;;;13.95;76.69
54920;BME280;63804;53.120;8.764;2023-05-11T02:22:28;101541.28;;;13.92;76.78
54920;BME280;63804;53.120;8.764;2023-05-11T02:24:56;101550.38;;;13.89;76.76
54920;BME280;63804;53.120;8.764;2023-05-11T02:27:23;101549.84;;;13.84;76.69
54920;BME280;63804;53.120;8.764;2023-05-11T02:29:51;101549.84;;;13.84;76.98
54920;BME280;63804;53.120;8.764;2023-05-11T02:32:20;101547.44;;;13.81;77.29
54920;BME280;63804;53.120;8.764;2023-05-11T02:35:00;101557.25;;;13.92;76.68
54920;BME280;63804;53.120;8.764;2023-05-11T02:37:29;101557.63;;;13.87;76.81
54920;BME280;63804;53.120;8.764;2023-05-11T02:40:05;101559.00;;;13.93;76.52
54920;BME280;63804;53.120;8.764;2023-05-11T02:42:37;101552.84;;;13.80;77.09
54920;BME280;63804;53.120;8.764;2023-05-11T02:45:07;101555.25;;;13.72;77.45
54920;BME280;63804;53.120;8.764;2023-05-11T02:47:38;101561.19;;;13.75;77.41
54920;BME280;63804;53.120;8.764;2023-05-11T02:50:06;101565.09;;;13.82;77.18
54920;BME280;63804;53.120;8.764;2023-05-11T02:52:35;101557.00;;;13.84;76.94
54920;BME280;63804;53.120;8.764;2023-05-11T02:55:05;101557.22;;;13.81;77.18
54920;BME280;63804;53.120;8.764;2023-05-11T02:57:34;101562.53;;;13.81;77.06
54920;BME280;63804;53.120;8.764;2023-05-11T03:00:01;101561.69;;;13.80;77.12
54920;BME280;63804;53.120;8.764;2023-05-11T03:02:29;101567.88;;;13.81;77.03
54920;BME280;63804;53.120;8.764;2023-05-11T03:04:56;101561.47;;;13.83;76.83
54920;BME280;63804;53.120;8.764;2023-05-11T03:07:24;101570.03;;;13.76;77.35
54920;BME280;63804;53.120;8.764;2023-05-11T03:09:52;101571.84;;;13.75;77.16
54920;BME280;63804;53.120;8.764;2023-05-11T03:12:19;101564.94;;;13.73;77.33
54920;BME280;63804;53.120;8.764;2023-05-11T03:14:47;101570.03;;;13.76;77.32
54920;BME280;63804;53.120;8.764;2023-05-11T03:17:15;101566.75;;;13.72;77.15
54920;BME280;63804;53.120;8.764;2023-05-11T03:19:43;101557.16;;;13.70;77.31
54920;BME280;63804;53.120;8.764;2023-05-11T03:22:11;101571.84;;;13.75;77.12
54920;BME280;63804;53.120;8.764;2023-05-11T03:24:39;101572.47;;;13.79;77.00
54920;BME280;63804;53.120;8.764;2023-05-11T03:27:07;101564.94;;;13.73;76.99
54920;BME280;63804;53.120;8.764;2023-05-11T03:29:35;101563.38;;;13.70;77.04
54920;BME280;63804;53.120;8.764;2023-05-11T03:32:04;101570.38;;;13.71;76.89
54920;BME280;63804;53.120;8.764;2023-05-11T03:34:31;101565.06;;;13.71;77.17
54920;BME280;63804;53.120;8.764;2023-05-11T03:36:59;101566.66;;;13.74;76.79
54920;BME280;63804;53.120;8.764;2023-05-11T03:39:28;101569.75;;;13.68;76.82
54920;BME280;63804;53.120;8.764;2023-05-11T03:41:58;101566.25;;;13.67;76.96
54920;BME280;63804;53.120;8.764;2023-05-11T03:44:26;101566.75;;;13.72;76.85
54920;BME280;63804;53.120;8.764;2023-05-11T03:46:55;101565.78;;;13.73;76.68
54920;BME280;63804;53.120;8.764;2023-05-11T03:49:24;101571.84;;;13.75;76.69
54920;BME280;63804;53.120;8.764;2023-05-11T03:51:52;101558.88;;;13.71;76.93
54920;BME280;63804;53.120;8.764;2023-05-11T03:54:19;101571.09;;;13.73;76.70
54920;BME280;63804;53.120;8.764;2023-05-11T03:56:46;101567.38;;;13.76;76.67
54920;BME280;63804;53.120;8.764;2023-05-11T03:59:15;101568.28;;;13.63;76.96
54920;BME280;63804;53.120;8.764;2023-05-11T04:01:42;101573.94;;;13.59;77.41
54920;BME280;63804;53.120;8.764;2023-05-11T04:04:09;101569.69;;;13.56;77.42
54920;BME280;63804;53.120;8.764;2023-05-11T04:06:37;101569.91;;;13.53;77.69
54920;BME280;63804;53.120;8.764;2023-05-11T04:09:04;101563.00;;;13.51;77.28
54920;BME280;63804;53.120;8.764;2023-05-11T04:11:35;101572.34;;;13.56;77.18
54920;BME280;63804;53.120;8.764;2023-05-11T04:14:03;101574.88;;;13.58;77.20
54920;BME280;63804;53.120;8.764;2023-05-11T04:16:30;101566.63;;;13.50;77.63
54920;BME280;63804;53.120;8.764;2023-05-11T04:18:57;101578.50;;;13.57;77.33
54920;BME280;63804;53.120;8.764;2023-05-11T04:21:24;101570.44;;;13.58;76.99
54920;BME280;63804;53.120;8.764;2023-05-11T04:23:51;101575.00;;;13.56;77.15
54920;BME280;63804;53.120;8.764;2023-05-11T04:26:18;101573.31;;;13.55;77.02
54920;BME280;63804;53.120;8.764;2023-05-11T04:28:46;101572.34;;;13.56;76.95
54920;BME280;63804;53.120;8.764;2023-05-11T04:31:13;101568.72;;;13.57;77.08
54920;BME280;63804;53.120;8.764;2023-05-11T04:33:40;101580.13;;;13.59;76.82
54920;BME280;63804;53.120;8.764;2023-05-11T04:36:07;101570.75;;;13.54;76.95
54920;BME280;63804;53.120;8.764;2023-05-11T04:38:34;101569.06;;;13.53;77.13
54920;BME280;63804;53.120;8.764;2023-05-11T04:41:05;101577.47;;;13.47;77.59
54920;BME280;63804;53.120;8.764;2023-05-11T04:43:32;101576.47;;;13.60;77.04
54920;BME280;63804;53.120;8.764;2023-05-11T04:46:00;101578.09;;;13.63;76.61
54920;BME280;63804;53.120;8.764;2023-05-11T04:48:27;101579.00;;;13.62;76.55
54920;BME280;63804;53.120;8.764;2023-05-11T04:50:54;101575.63;;;13.60;76.67
54920;BME280;63804;53.120;8.764;2023-05-11T04:53:22;101578.22;;;13.49;77.22
54920;BME280;63804;53.120;8.764;2023-05-11T04:55:49;101574.50;;;13.51;77.00
54920;BME280;63804;53.120;8.764;2023-05-11T04:58:16;101577.88;;;13.53;76.85
54920;BME280;63804;53.120;8.764;2023-05-11T05:00:43;101577.03;;;13.53;77.03
54920;BME280;63804;53.120;8.764;2023-05-11T05:03:10;101582.56;;;13.50;77.11
54920;BME280;63804;53.120;8.764;2023-05-11T05:05:37;101581.53;;;13.52;77.19
54920;BME280;63804;53.120;8.764;2023-05-11T05:08:04;101584.81;;;13.56;76.89
54920;BME280;63804;53.120;8.764;2023-05-11T05:10:31;101582.56;;;13.50;76.95
54920;BME280;63804;53.120;8.764;2023-05-11T05:12:58;101588.44;;;13.55;76.52
54920;BME280;63804;53.120;8.764;2023-05-11T05:15:25;101586.50;;;13.57;76.74
54920;BME280;63804;53.120;8.764;2023-05-11T05:17:52;101595.97;;;13.61;76.31
54920;BME280;63804;53.120;8.764;2023-05-11T05:20:19;101591.38;;;13.63;76.38
54920;BME280;63804;53.120;8.764;2023-05-11T05:22:46;101593.06;;;13.64;76.43
54920;BME280;63804;53.120;8.764;2023-05-11T05:25:13;101592.84;;;13.67;76.27
54920;BME280;63804;53.120;8.764;2023-05-11T05:27:41;101599.88;;;13.68;76.25
54920;BME280;63804;53.120;8.764;2023-05-11T05:30:08;101598.28;;;13.65;76.24
54920;BME280;63804;53.120;8.764;2023-05-11T05:32:35;101596.59;;;13.64;76.03
54920;BME280;63804;53.120;8.764;2023-05-11T05:35:02;101599.53;;;13.73;75.80
54920;BME280;63804;53.120;8.764;2023-05-11T05:37:29;101604.47;;;13.66;75.68
54920;BME280;63804;53.120;8.764;2023-05-11T05:39:56;101605.53;;;13.63;75.88
54920;BME280;63804;53.120;8.764;2023-05-11T05:42:23;101612.22;;;13.69;75.74
54920;BME280;63804;53.120;8.764;2023-05-11T05:44:50;101610.41;;;13.70;75.85
54920;BME280;63804;53.120;8.764;2023-05-11T05:47:18;101621.91;;;13.70;75.67
54920;BME280;63804;53.120;8.764;2023-05-11T05:49:45;101621.38;;;13.65;76.07
54920;BME280;63804;53.120;8.764;2023-05-11T05:52:12;101624.81;;;13.67;75.87
54920;BME280;63804;53.120;8.764;2023-05-11T05:54:39;101625.88;;;13.64;76.16
54920;BME280;63804;53.120;8.764;2023-05-11T05:57:06;101631.69;;;13.70;76.21
54920;BME280;63804;53.120;8.764;2023-05-11T05:59:33;101633.19;;;13.74;76.19
54920;BME280;63804;53.120;8.764;2023-05-11T06:02:00;101628.25;;;13.80;75.91
54920;BME280;63804;53.120;8.764;2023-05-11T06:04:27;101635.34;;;13.93;75.48
54920;BME280;63804;53.120;8.764;2023-05-11T06:06:54;101638.63;;;13.96;75.58
54920;BME280;63804;53.120;8.764;2023-05-11T06:09:23;101638.59;;;14.09;75.31
54920;BME280;63804;53.120;8.764;2023-05-11T06:11:50;101641.53;;;14.17;75.00
54920;BME280;63804;53.120;8.764;2023-05-11T06:14:19;101637.66;;;14.21;74.71
54920;BME280;63804;53.120;8.764;2023-05-11T06:16:48;101643.22;;;14.18;74.49
54920;BME280;63804;53.120;8.764;2023-05-11T06:19:15;101639.22;;;14.12;74.78
54920;BME280;63804;53.120;8.764;2023-05-11T06:21:42;101638.94;;;14.15;74.80
54920;BME280;63804;53.120;8.764;2023-05-11T06:24:11;101643.22;;;14.18;74.74
54920;BME280;63804;53.120;8.764;2023-05-11T06:26:38;101638.72;;;14.19;74.68
54920;BME280;63804;53.120;8.764;2023-05-11T06:29:05;101639.47;;;14.21;74.44
54920;BME280;63804;53.120;8.764;2023-05-11T06:31:33;101640.78;;;14.15;74.49
54920;BME280;63804;53.120;8.764;2023-05-11T06:34:00;101630.03;;;14.17;74.42
54920;BME280;63804;53.120;8.764;2023-05-11T06:36:27;101636.63;;;14.11;74.74
54920;BME280;63804;53.120;8.764;2023-05-11T06:38:54;101635.50;;;14.26;74.45
54920;BME280;63804;53.120;8.764;2023-05-11T06:41:21;101634.47;;;14.40;73.70
54920;BME280;63804;53.120;8.764;2023-05-11T06:43:48;101640.75;;;14.39;73.98
54920;BME280;63804;53.120;8.764;2023-05-11T06:46:16;101645.00;;;14.42;74.16
54920;BME280;63804;53.120;8.764;2023-05-11T06:48:43;101632.84;;;14.50;73.62
54920;BME280;63804;53.120;8.764;2023-05-11T06:51:11;101639.66;;;14.42;73.82
54920;BME280;63804;53.120;8.764;2023-05-11T06:53:38;101639.03;;;14.38;73.97
54920;BME280;63804;53.120;8.764;2023-05-11T06:56:05;101636.16;;;14.41;74.09
54920;BME280;63804;53.120;8.764;2023-05-11T06:58:33;101642.63;;;14.50;73.94
54920;BME280;63804;53.120;8.764;2023-05-11T07:01:00;101643.25;;;14.53;73.57
54920;BME280;63804;53.120;8.764;2023-05-11T07:03:28;101640.91;;;14.49;73.65
54920;BME280;63804;53.120;8.764;2023-05-11T07:05:55;101650.16;;;14.56;73.38
54920;BME280;63804;53.120;8.764;2023-05-11T07:08:22;101647.38;;;14.57;73.33
54920;BME280;63804;53.120;8.764;2023-05-11T07:10:49;101641.94;;;14.59;73.07
54920;BME280;63804;53.120;8.764;2023-05-11T07:13:16;101649.81;;;14.60;73.32
54920;BME280;63804;53.120;8.764;2023-05-11T07:15:43;101651.41;;;14.63;73.29
54920;BME280;63804;53.120;8.764;2023-05-11T07:18:10;101648.25;;;14.58;73.42
54920;BME280;63804;53.120;8.764;2023-05-11T07:20:37;101650.78;;;14.59;73.28
54920;BME280;63804;53.120;8.764;2023-05-11T07:23:06;101647.16;;;14.60;73.31
54920;BME280;63804;53.120;8.764;2023-05-11T07:25:33;101652.13;;;14.65;73.10
54920;BME280;63804;53.120;8.764;2023-05-11T07:28:00;101642.69;;;14.72;73.08
54920;BME280;63804;53.120;8.764;2023-05-11T07:30:27;101649.38;;;14.78;73.02
54920;BME280;63804;53.120;8.764;2023-05-11T07:32:54;101653.75;;;14.79;72.63
54920;BME280;63804;53.120;8.764;2023-05-11T07:35:21;101644.91;;;14.78;72.55
54920;BME280;63804;53.120;8.764;2023-05-11T07:37:50;101649.88;;;14.83;72.55
54920;BME280;63804;53.120;8.764;2023-05-11T07:40:17;101648.06;;;14.95;72.12
54920;BME280;63804;53.120;8.764;2023-05-11T07:42:44;101642.50;;;14.98;71.88
54920;BME280;63804;53.120;8.764;2023-05-11T07:45:11;101647.81;;;14.98;71.87
54920;BME280;63804;53.120;8.764;2023-05-11T07:47:38;101646.84;;;14.87;71.69
54920;BME280;63804;53.120;8.764;2023-05-11T07:50:06;101645.63;;;14.92;72.04
54920;BME280;63804;53.120;8.764;2023-05-11T07:52:33;101645.03;;;14.99;71.60
54920;BME280;63804;53.120;8.764;2023-05-11T07:55:00;101652.19;;;14.99;72.23
54920;BME280;63804;53.120;8.764;2023-05-11T07:57:27;101654.16;;;15.08;71.90
54920;BME280;63804;53.120;8.764;2023-05-11T07:59:54;101662.88;;;15.10;71.79
54920;BME280;63804;53.120;8.764;2023-05-11T08:02:21;101655.72;;;15.10;71.58
54920;BME280;63804;53.120;8.764;2023-05-11T08:04:48;101648.22;;;15.04;71.44
54920;BME280;63804;53.120;8.764;2023-05-11T08:07:16;101659.84;;;15.03;71.40
54920;BME280;63804;53.120;8.764;2023-05-11T08:09:43;101659.84;;;15.03;71.47
54920;BME280;63804;53.120;8.764;2023-05-11T08:12:10;101664.09;;;15.17;71.16
54920;BME280;63804;53.120;8.764;2023-05-11T08:14:37;101663.00;;;15.20;70.81
54920;BME280;63804;53.120;8.764;2023-05-11T08:17:04;101660.22;;;15.21;70.93
54920;BME280;63804;53.120;8.764;2023-05-11T08:19:32;101653.78;;;15.24;70.90
54920;BME280;63804;53.120;8.764;2023-05-11T08:21:59;101658.28;;;15.34;70.83
54920;BME280;63804;53.120;8.764;2023-05-11T08:24:26;101667.63;;;15.40;70.95
54920;BME280;63804;53.120;8.764;2023-05-11T08:26:53;101666.16;;;15.36;70.86
54920;BME280;63804;53.120;8.764;2023-05-11T08:29:20;101667.13;;;15.35;71.35
54920;BME280;63804;53.120;8.764;2023-05-11T08:31:48;101659.84;;;15.37;71.29
54920;BME280;63804;53.120;8.764;2023-05-11T08:34:15;101665.31;;;15.47;71.39
54920;BME280;63804;53.120;8.764;2023-05-11T08:36:46;101662.03;;;15.54;70.81
54920;BME280;63804;53.120;8.764;2023-05-11T08:39:13;101655.47;;;15.58;70.49
54920;BME280;63804;53.120;8.764;2023-05-11T08:41:56;101655.72;;;15.67;70.00
54920;BME280;63804;53.120;8.764;2023-05-11T08:44:25;101663.50;;;15.70;70.19
54920;BME280;63804;53.120;8.764;2023-05-11T08:46:52;101658.38;;;15.78;69.78
54920;BME280;63804;53.120;8.764;2023-05-11T08:49:39;101670.41;;;15.83;69.40
54920;BME280;63804;53.120;8.764;2023-05-11T08:52:07;101672.59;;;15.67;69.32
54920;BME280;63804;53.120;8.764;2023-05-11T08:54:34;101671.13;;;15.63;69.85
54920;BME280;63804;53.120;8.764;2023-05-11T08:57:02;101668.34;;;15.76;69.89
54920;BME280;63804;53.120;8.764;2023-05-11T08:59:29;101668.81;;;15.81;70.04
54920;BME280;63804;53.120;8.764;2023-05-11T09:02:00;101674.59;;;15.97;69.29
54920;BME280;63804;53.120;8.764;2023-05-11T09:04:30;101673.59;;;16.09;68.68
54920;BME280;63804;53.120;8.764;2023-05-11T09:06:58;101673.13;;;16.04;68.72
54920;BME280;63804;53.120;8.764;2023-05-11T09:09:25;101675.66;;;16.06;68.34
54920;BME280;63804;53.120;8.764;2023-05-11T09:11:53;101679.06;;;16.08;68.41
54920;BME280;63804;53.120;8.764;2023-05-11T09:14:21;101677.97;;;16.11;68.36
54920;BME280;63804;53.120;8.764;2023-05-11T09:16:52;101677.00;;;16.12;68.65
54920;BME280;63804;53.120;8.764;2023-05-11T09:19:20;101675.56;;;16.07;68.80
54920;BME280;63804;53.120;8.764;2023-05-11T09:21:47;101673.00;;;16.06;68.66
54920;BME280;63804;53.120;8.764;2023-05-11T09:24:14;101672.97;;;16.17;68.76
54920;BME280;63804;53.120;8.764;2023-05-11T09:26:41;101677.66;;;16.25;68.94
54920;BME280;63804;53.120;8.764;2023-05-11T09:29:08;101677.16;;;16.31;68.63
54920;BME280;63804;53.120;8.764;2023-05-11T09:31:40;101675.34;;;16.31;68.49
54920;BME280;63804;53.120;8.764;2023-05-11T09:34:19;101672.88;;;16.40;68.74
54920;BME280;63804;53.120;8.764;2023-05-11T09:36:49;101673.47;;;16.43;68.63
54920;BME280;63804;53.120;8.764;2023-05-11T09:39:16;101676.34;;;16.51;68.07
54920;BME280;63804;53.120;8.764;2023-05-11T09:42:20;101681.03;;;16.59;67.06
54920;BME280;63804;53.120;8.764;2023-05-11T09:44:47;101675.09;;;16.55;67.27
54920;BME280;63804;53.120;8.764;2023-05-11T09:47:19;101675.03;;;16.67;67.12
54920;BME280;63804;53.120;8.764;2023-05-11T09:49:48;101672.19;;;16.58;67.09
54920;BME280;63804;53.120;8.764;2023-05-11T09:52:17;101676.22;;;16.53;67.82
54920;BME280;63804;53.120;8.764;2023-05-11T09:54:49;101676.94;;;16.55;67.40
54920;BME280;63804;53.120;8.764;2023-05-11T09:57:30;101678.38;;;16.59;67.32
54920;BME280;63804;53.120;8.764;2023-05-11T09:59:58;101675.09;;;16.55;67.28
54920;BME280;63804;53.120;8.764;2023-05-11T10:02:30;101676.28;;;16.63;67.21
54920;BME280;63804;53.120;8.764;2023-05-11T10:05:00;101680.19;;;16.58;67.60
54920;BME280;63804;53.120;8.764;2023-05-11T10:07:28;101678.16;;;16.51;67.91
54920;BME280;63804;53.120;8.764;2023-05-11T10:09:57;101674.00;;;16.58;67.67
54920;BME280;63804;53.120;8.764;2023-05-11T10:12:25;101665.47;;;16.64;67.61
54920;BME280;63804;53.120;8.764;2023-05-11T10:15:00;101672.97;;;16.70;67.79
54920;BME280;63804;53.120;8.764;2023-05-11T10:17:28;101670.91;;;16.74;67.84
54920;BME280;63804;53.120;8.764;2023-05-11T10:19:57;101666.78;;;16.70;67.84
54920;BME280;63804;53.120;8.764;2023-05-11T10:22:26;101667.16;;;16.65;68.06
54920;BME280;63804;53.120;8.764;2023-05-11T10:24:55;101665.84;;;16.60;68.14
54920;BME280;63804;53.120;8.764;2023-05-11T10:27:23;101668.25;;;16.63;67.72
54920;BME280;63804;53.120;8.764;2023-05-11T10:29:50;101663.25;;;16.69;68.04
54920;BME280;63804;53.120;8.764;2023-05-11T10:32:18;101668.34;;;16.72;67.71
54920;BME280;63804;53.120;8.764;2023-05-11T10:34:46;101665.50;;;16.85;67.65
54920;BME280;63804;53.120;8.764;2023-05-11T10:37:14;101659.88;;;16.88;67.00
54920;BME280;63804;53.120;8.764;2023-05-11T10:39:43;101665.63;;;16.84;67.32
54920;BME280;63804;53.120;8.764;2023-05-11T10:45:03;101664.66;;;16.85;67.90
54920;BME280;63804;53.120;8.764;2023-05-11T10:50:55;101663.06;;;17.03;65.90
54920;BME280;63804;53.120;8.764;2023-05-11T11:02:10;101664.81;;;16.72;66.39
54920;BME280;63804;53.120;8.764;2023-05-11T11:04:45;101660.22;;;16.95;65.93
54920;BME280;63804;53.120;8.764;2023-05-11T11:07:13;101666.19;;;17.08;65.67
54920;BME280;63804;53.120;8.764;2023-05-11T11:09:56;101655.75;;;17.05;65.63
54920;BME280;63804;53.120;8.764;2023-05-11T11:12:23;101661.50;;;17.00;65.90
54920;BME280;63804;53.120;8.764;2023-05-11T11:17:29;101660.31;;;17.14;65.39
54920;BME280;63804;53.120;8.764;2023-05-11T11:19:58;101657.81;;;17.22;65.16
54920;BME280;63804;53.120;8.764;2023-05-11T11:25:10;101661.56;;;17.41;65.06
54920;BME280;63804;53.120;8.764;2023-05-11T11:30:18;101662.25;;;17.43;65.04
54920;BME280;63804;53.120;8.764;2023-05-11T11:32:47;101662.50;;;17.40;64.86
54920;BME280;63804;53.120;8.764;2023-05-11T11:38:15;101657.63;;;17.45;64.65
54920;BME280;63804;53.120;8.764;2023-05-11T11:40:47;101662.28;;;17.52;64.34
54920;BME280;63804;53.120;8.764;2023-05-11T11:43:20;101661.16;;;17.55;64.32
54920;BME280;63804;53.120;8.764;2023-05-11T11:45:59;101662.72;;;17.58;64.05
54920;BME280;63804;53.120;8.764;2023-05-11T11:51:09;101666.41;;;17.57;64.06
54920;BME280;63804;53.120;8.764;2023-05-11T12:01:08;101667.78;;;17.51;65.20
54920;BME280;63804;53.120;8.764;2023-05-11T12:03:36;101665.13;;;17.61;64.58
54920;BME280;63804;53.120;8.764;2023-05-11T12:06:04;101668.50;;;17.53;64.34
54920;BME280;63804;53.120;8.764;2023-05-11T12:08:33;101669.75;;;17.49;64.98
54920;BME280;63804;53.120;8.764;2023-05-11T12:11:01;101665.81;;;17.53;64.59
54920;BME280;63804;53.120;8.764;2023-05-11T12:13:29;101666.50;;;17.55;65.07
54920;BME280;63804;53.120;8.764;2023-05-11T12:16:13;101666.25;;;17.58;64.55
54920;BME280;63804;53.120;8.764;2023-05-11T12:18:43;101664.88;;;17.64;65.09
54920;BME280;63804;53.120;8.764;2023-05-11T12:21:20;101671.50;;;17.60;65.11
54920;BME280;63804;53.120;8.764;2023-05-11T12:24:01;101662.56;;;17.49;65.40
54920;BME280;63804;53.120;8.764;2023-05-11T12:26:30;101664.50;;;17.38;65.59
54920;BME280;63804;53.120;8.764;2023-05-11T12:29:12;101665.34;;;17.38;66.21
54920;BME280;63804;53.120;8.764;2023-05-11T12:31:44;101657.31;;;17.38;65.43
54920;BME280;63804;53.120;8.764;2023-05-11T12:34:13;101658.72;;;17.42;65.40
54920;BME280;63804;53.120;8.764;2023-05-11T12:36:43;101658.88;;;17.50;65.82
54920;BME280;63804;53.120;8.764;2023-05-11T12:39:22;101663.44;;;17.60;65.28
54920;BME280;63804;53.120;8.764;2023-05-11T12:41:52;101660.19;;;17.56;65.19
54920;BME280;63804;53.120;8.764;2023-05-11T12:44:22;101664.72;;;17.56;65.33
54920;BME280;63804;53.120;8.764;2023-05-11T12:46:50;101672.44;;;17.59;65.14
54920;BME280;63804;53.120;8.764;2023-05-11T12:49:26;101659.09;;;17.68;65.44
54920;BME280;63804;53.120;8.764;2023-05-11T12:54:47;101667.72;;;17.72;67.35
54920;BME280;63804;53.120;8.764;2023-05-11T12:57:28;101665.63;;;17.75;67.32
54920;BME280;63804;53.120;8.764;2023-05-11T13:00:09;101658.56;;;17.74;66.33
54920;BME280;63804;53.120;8.764;2023-05-11T13:02:58;101652.16;;;17.66;66.71
54920;BME280;63804;53.120;8.764;2023-05-11T13:05:26;101658.94;;;17.60;66.92
54920;BME280;63804;53.120;8.764;2023-05-11T13:08:04;101659.47;;;17.54;67.46
54920;BME280;63804;53.120;8.764;2023-05-11T13:10:31;101656.72;;;17.35;67.33
54920;BME280;63804;53.120;8.764;2023-05-11T13:12:58;101659.81;;;17.30;68.09
54920;BME280;63804;53.120;8.764;2023-05-11T13:15:25;101656.47;;;17.38;67.97
54920;BME280;63804;53.120;8.764;2023-05-11T13:18:01;101650.28;;;17.47;67.44
54920;BME280;63804;53.120;8.764;2023-05-11T13:20:32;101655.53;;;17.48;67.43
54920;BME280;63804;53.120;8.764;2023-05-11T13:23:08;101654.69;;;17.58;67.25
54920;BME280;63804;53.120;8.764;2023-05-11T13:28:15;101652.56;;;17.51;67.71
54920;BME280;63804;53.120;8.764;2023-05-11T13:30:43;101639.72;;;17.55;67.02
54920;BME280;63804;53.120;8.764;2023-05-11T13:33:10;101640.59;;;17.56;67.59
54920;BME280;63804;53.120;8.764;2023-05-11T13:35:38;101633.53;;;17.54;67.48
54920;BME280;63804;53.120;8.764;2023-05-11T13:38:05;101631.38;;;17.39;67.97
54920;BME280;63804;53.120;8.764;2023-05-11T13:40:33;101637.28;;;17.33;68.06
54920;BME280;63804;53.120;8.764;2023-05-11T13:43:00;101632.19;;;17.29;68.14
54920;BME280;63804;53.120;8.764;2023-05-11T13:45:28;101635.56;;;17.32;68.42
54920;BME280;63804;53.120;8.764;2023-05-11T13:47:55;101640.09;;;17.31;68.77
54920;BME280;63804;53.120;8.764;2023-05-11T13:50:24;101634.16;;;17.27;69.17
54920;BME280;63804;53.120;8.764;2023-05-11T13:52:52;101627.63;;;17.20;68.57